Time;durP1;ratioP1;P1;durP2;ratioP2;P2;SDS_P1;SDS_P2;PMS_P1;PMS_P2;Temp;Humidity;BMP_temperature;BMP_pressure;BME280_temperature;BME280_humidity;BME280_pressure;Samples;Min_cycle;Max_cycle;Signal;HPM_P1;HPM_P2
2021/04/06 00:01:40;;;;;;;10.05;7.75;;;7.20;99.90;;;;;;5118275;28;20172;-66
2021/04/06 00:04:08;;;;;;;12.57;7.38;;;7.10;99.90;;;;;;5118012;28;20745;-66
2021/04/06 00:06:37;;;;;;;15.18;9.93;;;7.00;99.90;;;;;;5117765;28;20179;-66
2021/04/06 00:09:07;;;;;;;14.80;10.70;;;7.00;99.90;;;;;;5117778;28;20192;-65
2021/04/06 00:11:33;;;;;;;13.02;9.05;;;7.00;99.90;;;;;;5118080;28;20190;-67
2021/04/06 00:13:59;;;;;;;9.20;6.78;;;6.90;99.90;;;;;;5117681;28;20249;-65
2021/04/06 00:16:25;;;;;;;11.38;8.20;;;6.90;99.90;;;;;;5117991;28;20223;-66
2021/04/06 00:18:53;;;;;;;12.65;8.25;;;6.80;99.90;;;;;;5117543;28;20322;-67
2021/04/06 00:21:19;;;;;;;14.52;9.00;;;6.80;99.90;;;;;;5117976;28;20262;-66
2021/04/06 00:23:47;;;;;;;10.70;7.55;;;6.70;99.90;;;;;;5117479;28;20211;-68
2021/04/06 00:26:14;;;;;;;18.75;9.55;;;6.70;99.90;;;;;;5117807;28;20168;-67
2021/04/06 00:28:42;;;;;;;10.77;7.20;;;6.70;99.90;;;;;;5117375;28;20286;-66
2021/04/06 00:31:08;;;;;;;12.88;8.27;;;6.70;99.90;;;;;;5117763;28;20538;-66
2021/04/06 00:33:40;;;;;;;9.25;7.72;;;6.60;99.90;;;;;;5117380;28;20192;-66
2021/04/06 00:36:07;;;;;;;10.32;6.43;;;6.60;99.90;;;;;;5117644;28;20215;-66
2021/04/06 00:38:37;;;;;;;11.13;8.48;;;6.60;99.90;;;;;;5098989;28;20583;-67
2021/04/06 00:41:07;;;;;;;9.18;7.03;;;6.60;99.90;;;;;;5117671;28;20176;-65
2021/04/06 00:43:36;;;;;;;15.23;8.05;;;6.60;99.90;;;;;;5117486;28;20190;-65
2021/04/06 00:46:03;;;;;;;8.88;7.13;;;6.40;99.90;;;;;;5117432;28;20488;-66
2021/04/06 00:48:31;;;;;;;11.07;6.82;;;6.50;99.90;;;;;;5116783;28;20631;-66
2021/04/06 00:50:57;;;;;;;8.98;7.88;;;6.60;99.90;;;;;;5098906;28;20176;-66
2021/04/06 00:53:22;;;;;;;11.27;5.70;;;6.70;99.90;;;;;;5116962;28;20191;-65
2021/04/06 00:55:50;;;;;;;10.10;7.73;;;6.70;99.90;;;;;;5117048;28;20684;-66
2021/04/06 00:58:16;;;;;;;16.73;10.43;;;6.70;99.90;;;;;;5116879;28;20669;-66
2021/04/06 01:00:43;;;;;;;12.20;8.30;;;6.70;99.90;;;;;;5116835;28;20175;-66
2021/04/06 01:03:15;;;;;;;9.93;7.40;;;6.60;99.90;;;;;;5116708;28;20427;-66
2021/04/06 01:06:02;;;;;;;10.65;7.57;;;6.50;99.90;;;;;;5116970;28;20244;-67
2021/04/06 01:08:32;;;;;;;11.45;8.00;;;6.50;99.90;;;;;;5116447;28;20616;-66
2021/04/06 01:11:01;;;;;;;12.48;6.53;;;6.40;99.90;;;;;;5098536;28;20180;-65
2021/04/06 01:13:27;;;;;;;9.98;6.60;;;6.50;99.90;;;;;;5098286;28;20196;-67
2021/04/06 01:15:54;;;;;;;13.80;8.25;;;6.50;99.90;;;;;;5116678;28;20239;-68
2021/04/06 01:18:21;;;;;;;15.05;8.43;;;6.50;99.90;;;;;;5116421;28;20192;-66
2021/04/06 01:20:47;;;;;;;8.15;7.30;;;6.40;99.90;;;;;;5116601;28;20254;-66
2021/04/06 01:23:18;;;;;;;11.47;6.83;;;6.40;99.90;;;;;;5116442;28;20687;-67
2021/04/06 01:25:50;;;;;;;14.63;9.95;;;6.40;99.90;;;;;;5116589;28;20263;-67
2021/04/06 01:28:16;;;;;;;9.63;5.82;;;6.40;99.90;;;;;;5098109;28;20203;-66
2021/04/06 01:30:45;;;;;;;11.70;7.47;;;6.40;99.90;;;;;;5116465;28;20179;-67
2021/04/06 01:33:12;;;;;;;12.18;8.05;;;6.40;99.90;;;;;;5097888;28;20565;-66
2021/04/06 01:35:38;;;;;;;7.20;5.60;;;6.50;99.90;;;;;;5116261;28;20214;-65
2021/04/06 01:38:05;;;;;;;9.65;6.32;;;6.50;99.90;;;;;;5116086;28;20202;-66
2021/04/06 01:40:31;;;;;;;9.18;6.40;;;6.40;99.90;;;;;;5116172;28;20176;-66
2021/04/06 01:42:57;;;;;;;11.70;7.20;;;6.30;99.90;;;;;;5116106;28;20203;-66
2021/04/06 01:45:23;;;;;;;12.15;7.70;;;6.30;99.90;;;;;;5116202;28;20751;-66
2021/04/06 01:47:49;;;;;;;9.05;5.78;;;6.40;99.90;;;;;;5097650;28;20283;-66
2021/04/06 01:50:15;;;;;;;10.40;8.03;;;6.50;99.90;;;;;;5115966;28;20243;-67
2021/04/06 01:52:44;;;;;;;10.55;7.28;;;6.40;99.90;;;;;;5115828;28;20428;-66
2021/04/06 01:55:16;;;;;;;12.73;8.55;;;6.30;99.90;;;;;;5115805;28;20200;-66
2021/04/06 01:57:46;;;;;;;11.55;6.72;;;6.40;99.90;;;;;;5115802;28;20167;-66
2021/04/06 02:03:09;;;;;;;8.55;5.65;;;6.40;99.90;;;;;;5091723;28;20216;-66
2021/04/06 02:05:35;;;;;;;12.75;8.95;;;6.50;99.90;;;;;;5115648;28;20682;-68
2021/04/06 02:08:11;;;;;;;8.27;5.50;;;6.40;99.90;;;;;;5115492;28;20200;-67
2021/04/06 02:10:37;;;;;;;10.13;6.13;;;6.40;99.90;;;;;;5097565;28;20187;-67
2021/04/06 02:13:14;;;;;;;8.80;7.95;;;6.40;99.90;;;;;;5115498;28;20195;-66
2021/04/06 02:15:52;;;;;;;13.70;7.43;;;6.40;99.90;;;;;;5115531;28;20656;-66
2021/04/06 02:18:28;;;;;;;10.52;6.97;;;6.40;99.90;;;;;;5115333;28;20191;-66
2021/04/06 02:20:56;;;;;;;11.63;6.10;;;6.40;99.90;;;;;;5114893;28;20221;-67
2021/04/06 02:23:22;;;;;;;11.60;6.65;;;6.30;99.90;;;;;;5115288;28;20192;-66
2021/04/06 02:25:53;;;;;;;8.68;6.22;;;6.30;99.90;;;;;;5115365;28;20169;-66
2021/04/06 02:28:22;;;;;;;11.70;6.80;;;6.30;99.90;;;;;;5115209;28;20199;-67
2021/04/06 02:30:59;;;;;;;6.47;5.70;;;6.30;99.90;;;;;;5096941;28;20706;-66
2021/04/06 02:33:36;;;;;;;9.30;6.30;;;6.30;99.90;;;;;;5115176;28;20187;-67
2021/04/06 02:36:07;;;;;;;9.35;5.68;;;6.20;99.90;;;;;;5115076;28;20222;-66
2021/04/06 02:38:35;;;;;;;10.55;6.57;;;6.30;99.90;;;;;;5114947;28;20199;-66
2021/04/06 02:41:07;;;;;;;13.75;7.82;;;6.20;99.90;;;;;;5115184;28;20618;-66
2021/04/06 02:43:44;;;;;;;7.97;6.10;;;6.10;99.90;;;;;;5114923;28;20248;-67
2021/04/06 02:46:11;;;;;;;10.45;6.22;;;6.10;99.90;;;;;;5115129;28;20688;-67
2021/04/06 02:48:37;;;;;;;9.82;7.32;;;6.10;99.90;;;;;;5114427;28;20593;-65
2021/04/06 02:51:03;;;;;;;8.40;6.30;;;6.20;99.90;;;;;;5114748;28;20180;-66
2021/04/06 02:53:31;;;;;;;7.03;5.90;;;6.20;99.90;;;;;;5114643;28;20192;-66
2021/04/06 02:55:58;;;;;;;9.75;7.80;;;6.30;99.90;;;;;;5114943;28;20304;-66
2021/04/06 02:58:23;;;;;;;9.07;6.28;;;6.00;99.90;;;;;;5096543;28;20733;-67
2021/04/06 03:00:49;;;;;;;9.10;6.30;;;6.10;99.90;;;;;;5114740;28;20217;-66
2021/04/06 03:03:24;;;;;;;11.40;7.10;;;6.10;99.90;;;;;;5114489;28;20192;-66
2021/04/06 03:06:04;;;;;;;11.07;7.05;;;5.90;99.90;;;;;;5114773;28;20915;-66
2021/04/06 03:08:35;;;;;;;8.68;6.28;;;5.90;99.90;;;;;;5114533;28;20695;-66
2021/04/06 03:11:04;;;;;;;12.88;7.97;;;6.10;99.90;;;;;;5114658;28;20176;-66
2021/04/06 03:13:29;;;;;;;11.55;8.40;;;6.00;99.90;;;;;;5114469;28;20677;-66
2021/04/06 03:15:56;;;;;;;9.27;7.93;;;6.00;99.90;;;;;;5114538;28;20212;-65
2021/04/06 03:18:32;;;;;;;9.75;6.68;;;6.00;99.90;;;;;;5095963;28;20215;-66
2021/04/06 03:21:07;;;;;;;9.18;6.97;;;6.20;99.90;;;;;;5114612;28;20179;-66
2021/04/06 03:23:34;;;;;;;11.88;5.18;;;6.30;99.90;;;;;;5114207;28;20187;-66
2021/04/06 03:26:01;;;;;;;10.55;6.45;;;6.40;99.90;;;;;;5096075;28;20176;-67
2021/04/06 03:28:39;;;;;;;8.60;6.65;;;6.50;99.90;;;;;;5114186;28;20200;-67
2021/04/06 03:31:15;;;;;;;8.73;7.78;;;6.60;99.90;;;;;;5114296;28;20171;-66
2021/04/06 03:33:44;;;;;;;10.70;7.47;;;6.70;99.90;;;;;;5113440;28;20287;-66
2021/04/06 03:36:23;;;;;;;15.55;9.00;;;6.70;99.90;;;;;;5114255;28;20211;-66
2021/04/06 03:38:50;;;;;;;14.32;8.70;;;6.90;99.90;;;;;;5114096;28;20202;-67
2021/04/06 03:41:18;;;;;;;7.82;6.50;;;7.10;99.90;;;;;;5096062;28;20252;-65
2021/04/06 03:43:44;;;;;;;11.05;6.22;;;7.10;99.90;;;;;;5113956;28;20240;-66
2021/04/06 03:46:10;;;;;;;8.50;5.60;;;7.20;99.90;;;;;;5113926;28;20178;-66
2021/04/06 03:48:38;;;;;;;4.90;3.97;;;7.30;99.90;;;;;;5113671;28;20220;-65
2021/04/06 03:51:27;;;;;;;4.03;1.67;;;7.30;99.90;;;;;;5114313;28;20752;-66
2021/04/06 03:53:54;;;;;;;1.35;1.20;;;7.20;99.90;;;;;;5113999;28;20697;-65
2021/04/06 03:56:27;;;;;;;4.78;1.67;;;7.30;99.90;;;;;;5114259;28;20551;-66
2021/04/06 03:59:09;;;;;;;4.65;1.40;;;6.90;99.90;;;;;;5113882;28;20204;-65
2021/04/06 04:01:35;;;;;;;4.30;1.02;;;6.80;99.90;;;;;;5113845;28;20176;-66
2021/04/06 04:04:00;;;;;;;0.80;0.80;;;6.90;99.90;;;;;;5095545;28;20203;-66
2021/04/06 04:06:28;;;;;;;0.73;0.73;;;6.90;99.90;;;;;;5114151;28;20179;-66
2021/04/06 04:08:54;;;;;;;2.00;1.30;;;6.70;99.90;;;;;;5113720;28;20202;-66
2021/04/06 04:11:21;;;;;;;3.35;1.17;;;6.70;99.90;;;;;;5114193;28;20182;-66
2021/04/06 04:13:47;;;;;;;0.80;0.80;;;6.70;99.90;;;;;;5113633;28;20206;-66
2021/04/06 04:16:14;;;;;;;1.00;0.60;;;6.70;99.90;;;;;;5114015;28;20211;-67
2021/04/06 04:18:39;;;;;;;0.98;0.70;;;6.60;99.90;;;;;;5096286;27;20415;-66
2021/04/06 04:21:05;;;;;;;1.03;0.80;;;6.60;99.90;;;;;;5120770;28;20188;-66
2021/04/06 04:23:31;;;;;;;0.80;0.60;;;6.70;99.90;;;;;;5122160;27;20555;-65
2021/04/06 04:25:57;;;;;;;0.70;0.70;;;6.50;99.90;;;;;;5114102;28;20412;-66
2021/04/06 04:28:23;;;;;;;0.50;0.40;;;6.50;99.90;;;;;;5125637;28;20563;-65
2021/04/06 04:30:51;;;;;;;0.93;0.70;;;6.50;99.90;;;;;;5134146;28;20526;-66
2021/04/06 04:33:16;;;;;;;1.50;0.60;;;6.60;99.90;;;;;;5109243;28;20258;-66
2021/04/06 04:35:42;;;;;;;1.30;0.70;;;6.60;99.90;;;;;;5100057;28;20227;-66
2021/04/06 04:38:08;;;;;;;0.40;0.37;;;6.60;99.90;;;;;;5124656;28;20211;-66
2021/04/06 04:40:35;;;;;;;5.85;2.95;;;6.70;99.90;;;;;;5113776;28;20176;-66
2021/04/06 04:43:01;;;;;;;1.90;1.70;;;6.60;99.90;;;;;;5116150;28;20752;-66
2021/04/06 04:45:27;;;;;;;2.13;1.02;;;6.50;99.90;;;;;;5132864;27;20651;-68
2021/04/06 04:47:53;;;;;;;0.60;0.50;;;6.30;99.90;;;;;;5132259;27;20214;-65
2021/04/06 04:50:20;;;;;;;0.80;0.53;;;6.40;99.90;;;;;;5120995;27;20310;-66
2021/04/06 04:52:47;;;;;;;0.40;0.40;;;6.30;99.90;;;;;;5123252;27;20394;-66
2021/04/06 04:55:15;;;;;;;2.05;0.65;;;6.20;99.90;;;;;;5124241;27;20555;-66
2021/04/06 04:57:41;;;;;;;1.60;1.05;;;6.30;99.90;;;;;;5110710;27;20534;-66
2021/04/06 05:00:08;;;;;;;1.60;1.50;;;6.30;99.90;;;;;;5127467;27;20653;-65
2021/04/06 05:02:34;;;;;;;1.80;1.00;;;6.10;99.90;;;;;;5124111;27;20665;-66
2021/04/06 05:04:59;;;;;;;0.83;0.77;;;6.00;99.90;;;;;;5132699;27;20167;-67
2021/04/06 05:07:25;;;;;;;1.77;1.57;;;6.10;99.90;;;;;;5114251;27;20183;-65
2021/04/06 05:09:50;;;;;;;1.10;0.90;;;6.00;99.90;;;;;;5122517;27;20184;-67
2021/04/06 05:12:16;;;;;;;1.63;1.23;;;6.10;99.90;;;;;;5132612;27;20198;-66
2021/04/06 05:14:42;;;;;;;1.42;1.30;;;5.80;99.90;;;;;;5120936;27;20230;-66
2021/04/06 05:17:08;;;;;;;1.17;1.00;;;5.70;99.90;;;;;;5125265;27;20535;-67
2021/04/06 05:19:33;;;;;;;6.50;1.73;;;5.80;99.90;;;;;;5119389;27;20203;-65
2021/04/06 05:21:59;;;;;;;3.13;1.33;;;5.70;99.90;;;;;;5106770;27;20176;-66
2021/04/06 05:24:24;;;;;;;1.00;0.97;;;5.60;99.90;;;;;;5135334;27;20199;-67
2021/04/06 05:26:50;;;;;;;1.17;0.97;;;5.70;99.90;;;;;;5127612;27;20551;-65
2021/04/06 05:29:16;;;;;;;1.20;0.70;;;5.60;99.90;;;;;;5134426;27;20210;-66
2021/04/06 05:31:41;;;;;;;0.90;0.80;;;5.70;99.90;;;;;;5137416;27;20178;-65
2021/04/06 05:34:07;;;;;;;2.40;1.07;;;5.60;99.90;;;;;;5124470;27;20207;-65
2021/04/06 05:36:33;;;;;;;1.50;1.10;;;5.60;99.90;;;;;;5118741;27;20216;-66
2021/04/06 05:38:58;;;;;;;1.33;0.70;;;5.50;99.90;;;;;;5130364;27;20206;-65
2021/04/06 05:41:25;;;;;;;1.10;0.67;;;5.60;99.90;;;;;;5122950;27;20552;-66
2021/04/06 05:43:59;;;;;;;1.00;0.70;;;5.50;99.90;;;;;;5109021;27;20214;-66
2021/04/06 05:46:28;;;;;;;4.68;1.10;;;5.40;99.90;;;;;;5117767;27;20179;-65
2021/04/06 05:48:58;;;;;;;1.98;0.90;;;5.40;99.90;;;;;;5121151;27;20250;-67
2021/04/06 05:51:25;;;;;;;1.38;0.63;;;5.40;99.90;;;;;;5127184;27;20187;-67
2021/04/06 05:53:52;;;;;;;0.50;0.40;;;5.50;99.90;;;;;;5124153;27;20291;-66
2021/04/06 05:56:18;;;;;;;0.60;0.60;;;5.30;99.90;;;;;;5118861;27;20223;-67
2021/04/06 05:58:44;;;;;;;1.20;0.80;;;5.20;99.90;;;;;;5111101;27;20223;-67
2021/04/06 06:01:10;;;;;;;1.43;1.40;;;5.10;99.90;;;;;;5117406;27;20175;-66
2021/04/06 06:03:35;;;;;;;0.60;0.57;;;5.30;99.90;;;;;;5124822;27;20577;-66
2021/04/06 06:06:01;;;;;;;0.40;0.40;;;5.50;99.90;;;;;;5132899;27;20900;-65
2021/04/06 06:08:29;;;;;;;0.60;0.60;;;5.40;99.90;;;;;;5121046;27;20206;-67
2021/04/06 06:11:04;;;;;;;3.42;0.70;;;5.00;99.90;;;;;;5123519;27;20209;-66
2021/04/06 06:13:34;;;;;;;1.15;0.98;;;5.00;99.90;;;;;;5127219;27;20199;-65
2021/04/06 06:16:08;;;;;;;0.60;0.50;;;4.80;99.90;;;;;;5126338;27;20239;-66
2021/04/06 06:18:50;;;;;;;0.40;0.30;;;5.10;99.90;;;;;;5114959;27;20723;-66
2021/04/06 06:21:16;;;;;;;0.63;0.55;;;4.80;99.90;;;;;;5122225;27;20175;-66
2021/04/06 06:23:41;;;;;;;0.90;0.67;;;4.70;99.90;;;;;;5121821;27;20573;-65
2021/04/06 06:26:07;;;;;;;1.93;1.70;;;4.60;99.90;;;;;;5122136;27;20180;-66
2021/04/06 06:28:35;;;;;;;0.87;0.87;;;4.50;99.90;;;;;;5119515;27;20266;-65
2021/04/06 06:31:00;;;;;;;1.15;1.05;;;4.50;99.90;;;;;;5124077;27;20660;-65
2021/04/06 06:33:28;;;;;;;1.50;1.33;;;4.30;99.90;;;;;;5106178;28;20286;-67
2021/04/06 06:35:54;;;;;;;1.73;1.20;;;4.30;99.90;;;;;;5121438;27;20216;-65
2021/04/06 06:38:25;;;;;;;1.33;1.23;;;4.30;99.90;;;;;;5124418;27;20555;-65
2021/04/06 06:40:55;;;;;;;1.58;1.10;;;4.20;99.90;;;;;;5121734;27;20184;-66
2021/04/06 06:43:23;;;;;;;3.90;0.70;;;4.20;99.90;;;;;;5120576;27;20199;-66
2021/04/06 06:45:50;;;;;;;2.05;0.60;;;4.30;99.90;;;;;;5122567;27;20304;-66
2021/04/06 06:48:30;;;;;;;0.70;0.70;;;4.20;99.90;;;;;;5120468;27;20203;-66
2021/04/06 06:50:56;;;;;;;0.98;0.95;;;4.10;99.90;;;;;;5115075;27;20183;-67
2021/04/06 06:53:32;;;;;;;1.10;0.90;;;4.10;99.90;;;;;;5121509;27;20203;-66
2021/04/06 06:55:58;;;;;;;1.85;1.30;;;4.10;99.90;;;;;;5122284;27;20214;-67
2021/04/06 06:58:41;;;;;;;1.23;1.00;;;4.10;99.90;;;;;;5111629;27;20198;-66
2021/04/06 07:01:28;;;;;;;1.80;1.27;;;4.10;99.90;;;;;;5119912;27;20269;-65
2021/04/06 07:04:15;;;;;;;1.20;0.90;;;4.20;99.90;;;;;;5117778;27;20203;-66
2021/04/06 07:06:46;;;;;;;1.90;1.02;;;4.10;99.90;;;;;;5123080;27;20183;-67
2021/04/06 07:09:25;;;;;;;1.17;0.60;;;4.10;99.90;;;;;;5114550;27;20196;-65
2021/04/06 07:12:03;;;;;;;1.00;0.80;;;4.20;99.90;;;;;;5112770;27;20214;-65
2021/04/06 07:14:30;;;;;;;0.82;0.60;;;4.30;99.90;;;;;;5104907;27;20203;-65
2021/04/06 07:16:59;;;;;;;1.05;0.95;;;4.40;99.90;;;;;;5116521;27;20215;-66
2021/04/06 07:19:26;;;;;;;0.57;0.52;;;4.40;99.90;;;;;;5125739;27;20207;-67
2021/04/06 07:22:02;;;;;;;1.30;0.73;;;4.40;99.90;;;;;;5116123;27;20187;-65
2021/04/06 07:24:31;;;;;;;0.57;0.57;;;4.40;99.90;;;;;;5113383;28;20267;-66
2021/04/06 07:26:57;;;;;;;1.33;0.80;;;4.50;99.90;;;;;;5116476;27;20526;-66
2021/04/06 07:29:25;;;;;;;1.90;1.70;;;4.60;99.90;;;;;;5111561;28;20746;-65
2021/04/06 07:31:51;;;;;;;3.55;1.70;;;4.80;99.90;;;;;;5121817;27;20198;-66
2021/04/06 07:34:19;;;;;;;2.50;2.30;;;4.90;99.90;;;;;;5117210;27;20333;-66
2021/04/06 07:36:45;;;;;;;1.75;1.17;;;4.90;99.90;;;;;;5109824;28;21096;-65
2021/04/06 07:39:13;;;;;;;0.80;0.80;;;5.10;99.90;;;;;;5109449;28;20203;-66
2021/04/06 07:41:45;;;;;;;1.48;1.38;;;5.00;99.90;;;;;;5122949;28;20250;-66
2021/04/06 07:44:12;;;;;;;1.80;1.55;;;5.00;99.90;;;;;;5119522;28;20608;-66
2021/04/06 07:46:39;;;;;;;1.67;1.58;;;5.00;99.90;;;;;;5103627;28;20229;-66
2021/04/06 07:49:07;;;;;;;3.45;2.97;;;5.10;99.90;;;;;;5105449;28;20236;-67
2021/04/06 07:51:43;;;;;;;2.65;1.67;;;5.10;99.90;;;;;;5120130;28;20258;-68
2021/04/06 07:54:12;;;;;;;2.85;1.70;;;5.10;99.90;;;;;;5128086;28;20241;-67
2021/04/06 07:56:49;;;;;;;7.50;4.65;;;5.10;99.90;;;;;;5118677;28;20227;-66
2021/04/06 07:59:20;;;;;;;3.03;1.83;;;5.10;99.90;;;;;;5124890;28;20202;-66
2021/04/06 08:01:48;;;;;;;3.33;1.48;;;5.30;99.90;;;;;;5124922;28;20238;-66
2021/04/06 08:04:14;;;;;;;2.88;1.67;;;5.60;99.90;;;;;;5119697;28;20195;-66
2021/04/06 08:06:45;;;;;;;3.08;2.28;;;5.50;99.90;;;;;;5122806;28;20187;-67
2021/04/06 08:09:32;;;;;;;5.80;2.83;;;5.70;99.90;;;;;;5122112;28;20658;-66
2021/04/06 08:12:11;;;;;;;1.77;1.67;;;5.70;99.90;;;;;;5103493;28;20179;-67
2021/04/06 08:14:48;;;;;;;3.03;2.45;;;5.80;99.90;;;;;;5101767;28;20239;-66
2021/04/06 08:17:25;;;;;;;2.85;1.42;;;6.00;99.90;;;;;;5121752;28;20183;-68
2021/04/06 08:19:56;;;;;;;0.50;0.40;;;6.10;99.90;;;;;;5123823;27;20187;-68
2021/04/06 08:22:25;;;;;;;1.60;1.50;;;6.30;99.90;;;;;;5131101;27;20198;-66
2021/04/06 08:24:51;;;;;;;1.95;0.80;;;6.40;99.90;;;;;;5113920;27;20312;-66
2021/04/06 08:27:35;;;;;;;1.48;0.93;;;6.70;99.90;;;;;;5127457;27;20183;-66
2021/04/06 08:30:19;;;;;;;2.75;1.77;;;6.50;99.90;;;;;;5118992;27;20217;-67
2021/04/06 08:33:00;;;;;;;1.40;1.02;;;6.70;99.90;;;;;;5131429;27;20740;-66
2021/04/06 08:35:44;;;;;;;0.73;0.60;;;6.70;99.90;;;;;;5102868;27;20215;-66
2021/04/06 08:41:05;;;;;;;0.95;0.82;;;6.90;99.90;;;;;;5124713;27;20226;-66
2021/04/06 08:43:38;;;;;;;1.13;0.75;;;7.00;99.90;;;;;;5121650;27;20207;-66
2021/04/06 08:46:04;;;;;;;1.38;1.25;;;7.00;99.90;;;;;;5120739;27;20259;-66
2021/04/06 08:51:26;;;;;;;6.43;3.13;;;7.20;99.90;;;;;;5120629;27;20622;-67
2021/04/06 08:54:00;;;;;;;2.85;2.08;;;7.10;99.90;;;;;;5126715;27;20578;-66
2021/04/06 08:56:30;;;;;;;7.88;3.35;;;7.10;99.90;;;;;;5123600;27;20218;-66
2021/04/06 08:59:11;;;;;;;5.13;2.25;;;7.00;99.90;;;;;;5106685;28;20203;-68
2021/04/06 09:01:37;;;;;;;3.83;1.90;;;7.10;99.90;;;;;;5124069;27;20187;-66
2021/04/06 09:04:21;;;;;;;2.80;1.17;;;7.20;99.90;;;;;;5118236;27;20557;-67
2021/04/06 09:06:48;;;;;;;1.25;1.15;;;7.10;99.90;;;;;;5124991;27;20458;-66
2021/04/06 09:09:17;;;;;;;1.38;0.90;;;7.10;99.90;;;;;;5117265;27;20195;-66
2021/04/06 09:11:44;;;;;;;4.70;1.65;;;7.20;99.90;;;;;;5104521;27;20266;-66
2021/04/06 09:14:09;;;;;;;4.18;1.73;;;7.30;99.90;;;;;;5125743;27;20268;-68
2021/04/06 09:16:36;;;;;;;1.93;1.57;;;7.10;99.90;;;;;;5107699;27;20215;-66
2021/04/06 09:19:15;;;;;;;2.03;1.40;;;7.30;99.90;;;;;;5108814;27;20268;-67
2021/04/06 09:22:02;;;;;;;1.67;1.10;;;7.10;99.90;;;;;;5116047;27;20178;-66
2021/04/06 09:24:28;;;;;;;2.13;1.20;;;7.10;99.90;;;;;;5119229;27;20564;-66
2021/04/06 09:26:56;;;;;;;1.92;1.08;;;6.90;99.90;;;;;;5123747;27;20187;-66
2021/04/06 09:29:33;;;;;;;2.38;1.27;;;6.90;99.90;;;;;;5122351;27;20203;-66
2021/04/06 09:32:07;;;;;;;1.60;1.50;;;7.00;99.90;;;;;;5116920;27;20182;-67
2021/04/06 09:34:46;;;;;;;6.82;2.25;;;7.00;99.90;;;;;;5095263;27;20199;-66
2021/04/06 09:37:21;;;;;;;1.73;1.13;;;7.00;99.90;;;;;;5120761;27;20176;-66
2021/04/06 09:39:49;;;;;;;0.77;0.68;;;7.40;99.90;;;;;;5119570;27;20564;-69
2021/04/06 09:42:15;;;;;;;0.95;0.95;;;7.10;99.90;;;;;;5105420;27;20184;-67
2021/04/06 09:44:43;;;;;;;2.10;1.13;;;7.10;99.90;;;;;;5107231;28;20725;-66
2021/04/06 09:47:14;;;;;;;1.08;0.98;;;7.30;99.90;;;;;;5118485;27;20167;-65
2021/04/06 09:49:52;;;;;;;1.42;1.33;;;7.40;99.90;;;;;;5105875;27;20231;-66
2021/04/06 09:52:23;;;;;;;1.77;1.45;;;7.40;99.50;;;;;;5124564;27;20235;-67
2021/04/06 09:54:50;;;;;;;1.27;0.80;;;7.40;98.90;;;;;;5124090;27;20272;-66
2021/04/06 09:57:17;;;;;;;1.15;1.08;;;7.30;98.70;;;;;;5106982;27;20188;-66
2021/04/06 09:59:49;;;;;;;6.88;1.70;;;7.30;99.00;;;;;;5114121;27;20203;-65
2021/04/06 10:02:18;;;;;;;2.60;1.75;;;7.40;99.10;;;;;;5121437;27;20187;-67
2021/04/06 10:04:48;;;;;;;1.98;0.85;;;7.40;98.80;;;;;;5108339;27;20202;-66
2021/04/06 10:07:17;;;;;;;0.70;0.70;;;7.60;98.40;;;;;;5117235;27;20637;-66
2021/04/06 10:09:51;;;;;;;1.55;0.80;;;8.10;97.60;;;;;;5121094;27;20207;-66
2021/04/06 10:12:18;;;;;;;0.63;0.50;;;8.10;96.30;;;;;;5106156;27;20189;-66
2021/04/06 10:14:45;;;;;;;1.70;1.08;;;7.90;95.80;;;;;;5117831;27;20203;-67
2021/04/06 10:17:17;;;;;;;1.00;0.85;;;7.70;96.30;;;;;;5124467;27;20254;-65
2021/04/06 10:19:59;;;;;;;2.15;1.17;;;7.60;97.50;;;;;;5123626;27;20228;-66
2021/04/06 10:22:25;;;;;;;1.80;1.50;;;7.40;97.00;;;;;;5116611;27;20183;-68
2021/04/06 10:24:57;;;;;;;1.63;0.80;;;7.40;96.40;;;;;;5117108;27;20215;-67
2021/04/06 10:27:29;;;;;;;1.63;1.48;;;7.30;97.20;;;;;;5107222;27;20193;-67
2021/04/06 10:30:00;;;;;;;1.38;1.27;;;7.40;97.90;;;;;;5117793;27;20171;-67
2021/04/06 10:33:01;;;;;;;1.08;0.98;;;7.60;96.40;;;;;;5112127;27;20543;-67
2021/04/06 10:35:29;;;;;;;2.00;1.80;;;8.10;95.90;;;;;;5051729;28;20336;-67
2021/04/06 10:37:58;;;;;;;3.42;2.15;;;8.00;96.20;;;;;;5098607;27;20729;-65
2021/04/06 10:40:39;;;;;;;2.20;1.63;;;7.80;96.00;;;;;;5116078;27;20193;-66
2021/04/06 10:43:07;;;;;;;1.25;1.15;;;7.80;96.40;;;;;;5116558;27;20199;-66
2021/04/06 10:45:35;;;;;;;1.75;1.50;;;7.80;95.80;;;;;;5114108;27;20248;-66
2021/04/06 10:48:18;;;;;;;1.58;1.02;;;7.80;96.10;;;;;;5115178;27;20714;-66
2021/04/06 10:50:51;;;;;;;1.95;1.50;;;8.00;96.50;;;;;;5101236;27;20234;-66
2021/04/06 10:53:30;;;;;;;2.33;2.13;;;7.90;96.20;;;;;;5114421;27;20211;-65
2021/04/06 10:56:02;;;;;;;2.95;1.80;;;7.80;96.10;;;;;;5095816;27;20218;-68
2021/04/06 10:58:34;;;;;;;2.67;2.45;;;7.80;96.00;;;;;;5115507;27;20199;-68
2021/04/06 11:01:02;;;;;;;2.45;1.95;;;7.80;95.70;;;;;;5111577;27;20215;-66
2021/04/06 11:03:57;;;;;;;1.60;1.48;;;7.80;94.00;;;;;;5099131;27;20207;-68
2021/04/06 11:06:35;;;;;;;2.20;1.67;;;7.90;93.60;;;;;;5099318;28;20596;-66
2021/04/06 11:09:09;;;;;;;1.30;1.20;;;7.90;92.80;;;;;;5095992;27;20211;-67
2021/04/06 11:11:35;;;;;;;1.50;1.30;;;7.90;92.70;;;;;;5096328;27;20251;-67
2021/04/06 11:14:04;;;;;;;2.50;1.60;;;7.90;92.10;;;;;;5116681;27;20211;-66
2021/04/06 11:16:31;;;;;;;0.82;0.75;;;7.90;90.80;;;;;;5116736;27;20272;-66
2021/04/06 11:19:09;;;;;;;1.60;1.25;;;8.00;90.60;;;;;;5116373;27;20294;-68
2021/04/06 11:21:41;;;;;;;1.13;0.90;;;8.00;90.30;;;;;;5103074;27;20183;-67
2021/04/06 11:24:07;;;;;;;0.73;0.50;;;8.10;88.20;;;;;;5119572;27;20769;-67
2021/04/06 11:26:33;;;;;;;3.53;1.80;;;8.20;85.50;;;;;;5119852;27;20193;-67
2021/04/06 11:28:59;;;;;;;1.00;0.77;;;8.60;84.60;;;;;;5101112;27;20207;-66
2021/04/06 11:31:26;;;;;;;3.55;1.10;;;8.70;84.10;;;;;;5102869;28;20430;-67
2021/04/06 11:33:52;;;;;;;3.28;1.48;;;8.60;84.40;;;;;;5121023;27;20625;-66
2021/04/06 11:36:18;;;;;;;1.53;1.00;;;8.60;85.60;;;;;;5122555;27;20215;-67
2021/04/06 11:38:44;;;;;;;1.00;0.90;;;9.00;82.00;;;;;;5101893;28;20874;-67
2021/04/06 11:41:10;;;;;;;1.35;1.25;;;9.00;80.60;;;;;;5107355;28;20478;-66
2021/04/06 11:43:36;;;;;;;1.50;1.40;;;8.80;81.40;;;;;;5118678;28;20240;-67
2021/04/06 11:46:02;;;;;;;1.40;1.30;;;8.80;80.10;;;;;;5123987;28;20221;-68
2021/04/06 11:48:27;;;;;;;1.08;0.95;;;8.80;79.60;;;;;;5121718;28;20199;-67
2021/04/06 11:50:53;;;;;;;2.23;1.40;;;8.80;76.80;;;;;;5112003;28;20248;-67
2021/04/06 11:53:19;;;;;;;0.87;0.80;;;8.70;76.70;;;;;;5112406;28;20199;-68
2021/04/06 11:55:45;;;;;;;1.40;0.93;;;8.90;78.90;;;;;;5133136;27;20702;-68
2021/04/06 11:58:11;;;;;;;1.33;1.23;;;8.90;76.90;;;;;;5125062;27;20198;-68
2021/04/06 12:00:36;;;;;;;0.60;0.60;;;9.00;76.50;;;;;;5104150;27;20181;-68
2021/04/06 12:03:04;;;;;;;0.90;0.80;;;9.10;74.20;;;;;;5104621;28;20447;-67
2021/04/06 12:05:29;;;;;;;1.80;1.00;;;8.90;71.30;;;;;;5106336;27;20202;-67
2021/04/06 12:07:55;;;;;;;1.03;1.03;;;8.70;71.20;;;;;;5120704;27;20203;-69
2021/04/06 12:10:21;;;;;;;0.77;0.77;;;8.90;70.60;;;;;;5118988;27;20180;-67
2021/04/06 12:12:47;;;;;;;1.43;0.87;;;8.90;68.50;;;;;;5109017;27;20199;-68
2021/04/06 12:15:13;;;;;;;1.60;0.88;;;8.80;65.80;;;;;;5125526;27;20524;-69
2021/04/06 12:17:39;;;;;;;1.20;0.63;;;8.80;65.40;;;;;;5099314;27;20552;-67
2021/04/06 12:20:06;;;;;;;0.60;0.60;;;8.90;66.50;;;;;;5112170;28;20197;-68
2021/04/06 12:22:31;;;;;;;3.20;0.95;;;9.00;66.60;;;;;;5107188;27;20183;-68
2021/04/06 12:24:57;;;;;;;1.83;1.20;;;9.00;65.00;;;;;;5105051;27;20185;-67
2021/04/06 12:27:25;;;;;;;0.73;0.70;;;8.80;63.20;;;;;;5130509;27;20578;-69
2021/04/06 12:29:50;;;;;;;0.70;0.70;;;8.90;63.10;;;;;;5126343;27;20168;-68
2021/04/06 12:32:16;;;;;;;4.57;1.20;;;9.10;64.40;;;;;;5125199;27;20196;-68
2021/04/06 12:34:41;;;;;;;1.07;0.77;;;9.30;64.40;;;;;;5128929;27;20210;-67
2021/04/06 12:37:08;;;;;;;2.07;0.90;;;9.70;60.90;;;;;;5130659;27;20210;-67
2021/04/06 12:39:34;;;;;;;0.93;0.55;;;9.80;61.80;;;;;;5123078;27;20199;-67
2021/04/06 12:42:00;;;;;;;2.53;1.20;;;9.90;61.60;;;;;;5127306;27;20207;-68
2021/04/06 12:44:25;;;;;;;1.47;0.90;;;10.00;61.70;;;;;;5127576;27;20245;-67
2021/04/06 12:46:51;;;;;;;1.10;1.00;;;10.20;61.30;;;;;;5123302;27;20780;-68
2021/04/06 12:49:17;;;;;;;2.50;1.87;;;10.00;60.50;;;;;;5122195;27;20705;-67
2021/04/06 12:51:43;;;;;;;1.40;1.03;;;10.20;62.20;;;;;;5104445;28;20209;-67
2021/04/06 12:54:09;;;;;;;1.57;1.47;;;10.20;60.60;;;;;;5106621;28;20654;-66
2021/04/06 12:56:34;;;;;;;1.77;0.80;;;10.20;60.10;;;;;;5121572;28;20563;-64
2021/04/06 12:59:00;;;;;;;1.10;0.87;;;10.50;59.80;;;;;;5122619;28;20483;-64
2021/04/06 13:01:25;;;;;;;2.13;1.07;;;10.90;58.80;;;;;;5122329;28;20179;-65
2021/04/06 13:03:51;;;;;;;0.70;0.67;;;11.00;55.40;;;;;;5121548;28;20210;-66
2021/04/06 13:06:17;;;;;;;6.60;1.67;;;11.10;54.40;;;;;;5123872;28;20191;-65
2021/04/06 13:08:42;;;;;;;1.97;1.10;;;10.80;54.50;;;;;;5107476;28;20210;-66
2021/04/06 13:11:08;;;;;;;1.13;1.00;;;10.50;55.50;;;;;;5125817;28;20633;-66
2021/04/06 13:13:34;;;;;;;1.00;0.83;;;10.70;54.90;;;;;;5124343;28;20558;-65
2021/04/06 13:16:00;;;;;;;2.30;0.80;;;10.80;54.00;;;;;;5104583;28;20251;-66